createdAt,value
2023-05-10T00:01:00.109Z,99.99
2023-05-10T00:02:00.046Z,99.99
2023-05-10T00:03:00.282Z,99.99
2023-05-10T00:04:00.050Z,99.99
2023-05-10T00:05:00.105Z,99.99
2023-05-10T00:05:59.982Z,99.99
2023-05-10T00:07:00.051Z,99.99
2023-05-10T00:07:59.935Z,99.99
2023-05-10T00:09:00.059Z,99.99
2023-05-10T00:09:59.915Z,99.99
2023-05-10T00:10:59.981Z,99.99
2023-05-10T00:11:59.871Z,99.99
2023-05-10T00:13:00.081Z,99.99
2023-05-10T00:13:59.871Z,99.99
2023-05-10T00:15:00.006Z,99.99
2023-05-10T00:15:59.866Z,99.99
2023-05-10T00:16:59.960Z,99.99
2023-05-10T00:17:59.869Z,99.99
2023-05-10T00:18:59.968Z,99.99
2023-05-10T00:19:59.814Z,99.99
2023-05-10T00:20:59.944Z,99.82
2023-05-10T00:21:59.767Z,99.99
2023-05-10T00:22:59.849Z,99.99
2023-05-10T00:23:59.777Z,99.99
2023-05-10T00:24:59.858Z,99.99
2023-05-10T00:25:59.754Z,99.99
2023-05-10T00:27:00.912Z,99.99
2023-05-10T00:27:59.703Z,99.99
2023-05-10T00:28:59.811Z,99.99
2023-05-10T00:29:59.703Z,99.99
2023-05-10T00:31:00.870Z,99.99
2023-05-10T00:31:59.702Z,99.99
2023-05-10T00:33:00.848Z,99.99
2023-05-10T00:33:59.711Z,99.99
2023-05-10T00:34:59.739Z,99.99
2023-05-10T00:35:59.638Z,99.99
2023-05-10T00:36:59.750Z,99.99
2023-05-10T00:37:59.596Z,99.99
2023-05-10T00:38:59.801Z,99.99
2023-05-10T00:39:59.587Z,99.99
2023-05-10T00:40:59.792Z,99.99
2023-05-10T00:41:59.556Z,99.99
2023-05-10T00:42:59.711Z,99.99
2023-05-10T00:43:59.567Z,99.99
2023-05-10T00:44:59.710Z,99.99
2023-05-10T00:45:59.582Z,99.99
2023-05-10T00:46:59.622Z,99.99
2023-05-10T00:47:59.516Z,99.99
2023-05-10T00:48:59.667Z,99.99
2023-05-10T00:49:59.469Z,99.99
2023-05-10T00:50:59.640Z,99.99
2023-05-10T00:51:59.473Z,99.99
2023-05-10T00:52:59.550Z,99.99
2023-05-10T00:53:59.430Z,99.99
2023-05-10T00:54:59.535Z,99.99
2023-05-10T00:55:59.419Z,99.99
2023-05-10T00:56:59.551Z,99.99
2023-05-10T00:57:59.400Z,99.99
2023-05-10T00:58:59.394Z,99.99
2023-05-10T00:59:59.361Z,99.99
2023-05-10T01:00:59.461Z,99.99
2023-05-10T01:01:59.393Z,99.99
2023-05-10T01:02:59.521Z,99.99
2023-05-10T01:03:59.341Z,99.99
2023-05-10T01:05:00.450Z,99.99
2023-05-10T01:05:59.330Z,99.99
2023-05-10T01:06:59.354Z,99.99
2023-05-10T01:07:59.303Z,99.99
2023-05-10T01:08:59.375Z,99.99
2023-05-10T01:09:59.268Z,99.99
2023-05-10T01:10:59.309Z,99.99
2023-05-10T01:11:59.276Z,99.99
2023-05-10T01:12:59.352Z,99.99
2023-05-10T01:13:59.254Z,99.99
2023-05-10T01:14:59.305Z,99.99
2023-05-10T01:15:59.245Z,99.99
2023-05-10T01:17:00.250Z,99.99
2023-05-10T01:17:59.224Z,99.99
2023-05-10T01:18:59.248Z,99.99
2023-05-10T01:19:59.169Z,99.99
2023-05-10T01:20:59.403Z,99.99
2023-05-10T01:21:59.148Z,99.99
2023-05-10T01:22:59.275Z,99.99
2023-05-10T01:23:59.129Z,99.99
2023-05-10T01:24:59.187Z,99.99
2023-05-10T01:25:59.125Z,99.99
2023-05-10T01:26:59.186Z,99.99
2023-05-10T01:27:59.076Z,99.99
2023-05-10T01:28:59.213Z,99.99
2023-05-10T01:30:14.258Z,99.99
2023-05-10T01:30:59.101Z,99.99
2023-05-10T01:31:59.143Z,99.99
2023-05-10T01:32:59.045Z,99.99
2023-05-10T01:33:59.189Z,99.99
2023-05-10T01:34:58.999Z,99.99
2023-05-10T01:35:59.097Z,99.99
2023-05-10T01:36:58.966Z,99.99
2023-05-10T01:37:59.060Z,99.99
2023-05-10T01:38:58.949Z,99.99
2023-05-10T01:39:59.077Z,99.99
2023-05-10T01:40:58.956Z,99.99
2023-05-10T01:41:59.011Z,99.99
2023-05-10T01:42:58.926Z,99.99
2023-05-10T01:43:59.013Z,99.99
2023-05-10T01:44:58.904Z,99.99
2023-05-10T01:45:59.072Z,99.99
2023-05-10T01:46:59.004Z,99.99
2023-05-10T01:47:58.979Z,99.99
2023-05-10T01:48:58.869Z,99.99
2023-05-10T01:49:58.990Z,99.99
2023-05-10T01:50:58.824Z,99.99
2023-05-10T01:51:58.948Z,99.99
2023-05-10T01:52:58.813Z,99.99
2023-05-10T01:53:58.874Z,99.99
2023-05-10T01:54:58.802Z,99.99
2023-05-10T01:55:58.889Z,99.99
2023-05-10T01:56:58.753Z,99.99
2023-05-10T01:57:58.914Z,99.99
2023-05-10T01:58:58.750Z,99.99
2023-05-10T01:59:58.859Z,99.99
2023-05-10T02:00:58.783Z,99.99
2023-05-10T02:01:58.835Z,99.99
2023-05-10T02:02:58.717Z,99.99
2023-05-10T02:03:59.978Z,99.99
2023-05-10T02:04:58.666Z,99.99
2023-05-10T02:05:58.796Z,99.99
2023-05-10T02:06:58.688Z,99.99
2023-05-10T02:07:58.770Z,99.99
2023-05-10T02:08:58.638Z,99.99
2023-05-10T02:09:58.796Z,99.99
2023-05-10T02:10:58.626Z,99.99
2023-05-10T02:11:58.734Z,99.99
2023-05-10T02:12:58.620Z,99.99
2023-05-10T02:13:58.725Z,99.99
2023-05-10T02:14:58.573Z,99.99
2023-05-10T02:15:58.728Z,99.99
2023-05-10T02:16:58.637Z,99.99
2023-05-10T02:17:58.640Z,99.99
2023-05-10T02:18:58.552Z,99.99
2023-05-10T02:19:58.658Z,99.99
2023-05-10T02:20:58.513Z,99.99
2023-05-10T02:21:58.661Z,99.99
2023-05-10T02:22:58.517Z,99.99
2023-05-10T02:23:58.582Z,99.99
2023-05-10T02:24:58.475Z,99.99
2023-05-10T02:25:58.595Z,99.99
2023-05-10T02:26:58.443Z,99.99
2023-05-10T02:27:58.663Z,99.99
2023-05-10T02:28:58.428Z,99.99
2023-05-10T02:29:58.526Z,99.99
2023-05-10T02:30:58.431Z,99.99
2023-05-10T02:31:58.583Z,99.99
2023-05-10T02:32:58.425Z,99.99
2023-05-10T02:33:58.551Z,99.99
2023-05-10T02:34:58.383Z,99.99
2023-05-10T02:35:58.538Z,99.99
2023-05-10T02:36:58.358Z,99.99
2023-05-10T02:37:58.530Z,99.99
2023-05-10T02:38:58.332Z,99.99
2023-05-10T02:39:58.496Z,99.99
2023-05-10T02:40:58.304Z,99.99
2023-05-10T02:41:58.523Z,99.99
2023-05-10T02:42:58.308Z,99.99
2023-05-10T02:44:00.459Z,99.99
2023-05-10T02:44:58.268Z,99.99
2023-05-10T02:45:59.478Z,99.99
2023-05-10T02:46:58.265Z,99.99
2023-05-10T02:47:58.354Z,99.99
2023-05-10T02:48:58.269Z,99.99
2023-05-10T02:49:58.348Z,99.99
2023-05-10T02:50:58.207Z,99.99
2023-05-10T02:51:59.405Z,99.99
2023-05-10T02:52:58.214Z,99.99
2023-05-10T02:53:59.317Z,99.99
2023-05-10T02:54:58.188Z,99.99
2023-05-10T02:55:58.293Z,99.99
2023-05-10T02:56:58.141Z,99.99
2023-05-10T02:57:58.374Z,99.99
2023-05-10T02:58:58.125Z,99.99
2023-05-10T02:59:58.262Z,99.99
2023-05-10T03:00:58.097Z,99.99
2023-05-10T03:01:58.231Z,99.99
2023-05-10T03:02:58.099Z,99.99
2023-05-10T03:03:58.248Z,99.99
2023-05-10T03:04:58.607Z,99.99
2023-05-10T03:05:58.270Z,99.99
2023-05-10T03:06:58.036Z,99.99
2023-05-10T03:07:58.191Z,99.99
2023-05-10T03:08:58.021Z,99.99
2023-05-10T03:09:58.239Z,99.99
2023-05-10T03:10:58.008Z,99.99
2023-05-10T03:11:58.122Z,99.99
2023-05-10T03:12:58.005Z,99.99
2023-05-10T03:13:58.027Z,99.99
2023-05-10T03:14:57.984Z,99.99
2023-05-10T03:15:58.125Z,99.99
2023-05-10T03:16:57.935Z,99.99
2023-05-10T03:17:58.083Z,99.99
2023-05-10T03:18:57.917Z,99.99
2023-05-10T03:19:58.005Z,99.99
2023-05-10T03:20:57.896Z,99.99
2023-05-10T03:21:57.972Z,99.99
2023-05-10T03:22:57.861Z,99.99
2023-05-10T03:23:58.005Z,99.99
2023-05-10T03:24:57.860Z,99.99
2023-05-10T03:25:57.939Z,99.99
2023-05-10T03:26:57.845Z,99.99
2023-05-10T03:27:57.934Z,99.99
2023-05-10T03:28:57.810Z,99.99
2023-05-10T03:29:57.913Z,99.99
2023-05-10T03:30:57.906Z,99.99
2023-05-10T03:31:57.835Z,99.99
2023-05-10T03:32:57.806Z,99.99
2023-05-10T03:33:57.862Z,99.99
2023-05-10T03:34:57.764Z,99.99
2023-05-10T03:35:58.800Z,99.99
2023-05-10T03:36:57.715Z,99.99
2023-05-10T03:37:57.781Z,99.99
2023-05-10T03:38:57.691Z,99.99
2023-05-10T03:39:57.795Z,99.99
2023-05-10T03:40:57.697Z,99.99
2023-05-10T03:41:57.807Z,99.99
2023-05-10T03:42:57.661Z,99.99
2023-05-10T03:43:57.731Z,99.99
2023-05-10T03:44:57.637Z,99.99
2023-05-10T03:45:57.776Z,99.99
2023-05-10T03:46:57.692Z,99.99
2023-05-10T03:47:57.806Z,99.99
2023-05-10T03:48:57.602Z,99.99
2023-05-10T03:49:57.699Z,99.99
2023-05-10T03:50:57.577Z,99.99
2023-05-10T03:51:57.678Z,99.99
2023-05-10T03:52:57.542Z,99.99
2023-05-10T03:53:57.702Z,99.99
2023-05-10T03:54:57.530Z,99.99
2023-05-10T03:55:57.686Z,99.99
2023-05-10T03:56:57.500Z,99.99
2023-05-10T03:57:57.619Z,99.99
2023-05-10T03:58:57.491Z,99.99
2023-05-10T03:59:57.631Z,99.99
2023-05-10T04:00:57.501Z,99.99
2023-05-10T04:01:57.598Z,99.99
2023-05-10T04:02:57.568Z,99.99
2023-05-10T04:03:57.702Z,99.99
2023-05-10T04:04:57.447Z,99.99
2023-05-10T04:05:57.595Z,99.99
2023-05-10T04:06:57.411Z,99.99
2023-05-10T04:07:57.492Z,99.99
2023-05-10T04:08:57.373Z,99.99
2023-05-10T04:09:57.548Z,99.99
2023-05-10T04:10:57.364Z,99.99
2023-05-10T04:11:57.514Z,99.99
2023-05-10T04:12:57.369Z,99.99
2023-05-10T04:13:57.432Z,99.99
2023-05-10T04:14:57.355Z,99.99
2023-05-10T04:15:59.495Z,99.99
2023-05-10T04:16:57.395Z,99.99
2023-05-10T04:17:59.415Z,99.99
2023-05-10T04:18:57.283Z,99.99
2023-05-10T04:19:58.439Z,99.99
2023-05-10T04:20:57.315Z,99.99
2023-05-10T04:21:57.559Z,99.99
2023-05-10T04:22:57.246Z,99.99
2023-05-10T04:23:57.393Z,99.99
2023-05-10T04:24:57.243Z,99.99
2023-05-10T04:25:57.304Z,99.99
2023-05-10T04:26:57.851Z,99.99
2023-05-10T04:27:57.373Z,99.99
2023-05-10T04:28:57.184Z,99.99
2023-05-10T04:29:57.368Z,99.99
2023-05-10T04:30:57.194Z,99.99
2023-05-10T04:31:57.255Z,99.99
2023-05-10T04:32:57.225Z,99.99
2023-05-10T04:33:57.294Z,99.99
2023-05-10T04:34:57.105Z,99.99
2023-05-10T04:35:57.193Z,99.99
2023-05-10T04:36:57.086Z,99.99
2023-05-10T04:37:57.201Z,99.99
2023-05-10T04:38:57.086Z,99.99
2023-05-10T04:39:57.197Z,99.99
2023-05-10T04:40:57.045Z,99.99
2023-05-10T04:41:57.229Z,99.99
2023-05-10T04:42:57.054Z,99.99
2023-05-10T04:43:57.126Z,99.99
2023-05-10T04:44:57.026Z,99.99
2023-05-10T04:45:57.155Z,99.99
2023-05-10T04:46:56.997Z,99.99
2023-05-10T04:47:57.279Z,99.99
2023-05-10T04:48:56.961Z,99.99
2023-05-10T04:49:57.059Z,99.99
2023-05-10T04:50:56.934Z,99.99
2023-05-10T04:51:57.133Z,99.99
2023-05-10T04:52:56.921Z,99.99
2023-05-10T04:54:06.108Z,99.99
2023-05-10T04:54:56.913Z,99.99
2023-05-10T04:55:57.015Z,99.99
2023-05-10T04:56:56.867Z,99.99
2023-05-10T04:57:57.060Z,99.99
2023-05-10T04:58:56.875Z,99.99
2023-05-10T04:59:57.036Z,99.99
2023-05-10T05:00:56.874Z,99.99
2023-05-10T05:01:57.193Z,99.99
2023-05-10T05:02:56.903Z,99.99
2023-05-10T05:03:58.262Z,99.99
2023-05-10T05:04:56.812Z,99.99
2023-05-10T05:05:57.900Z,99.99
2023-05-10T05:06:56.780Z,99.99
2023-05-10T05:07:56.842Z,99.99
2023-05-10T05:08:56.770Z,99.99
2023-05-10T05:09:56.813Z,99.99
2023-05-10T05:10:56.744Z,99.99
2023-05-10T05:11:56.824Z,99.99
2023-05-10T05:12:56.724Z,99.99
2023-05-10T05:13:57.804Z,99.99
2023-05-10T05:14:56.684Z,99.99
2023-05-10T05:15:56.800Z,99.99
2023-05-10T05:16:56.680Z,99.99
2023-05-10T05:17:56.832Z,99.99
2023-05-10T05:18:56.664Z,99.99
2023-05-10T05:19:56.688Z,99.99
2023-05-10T05:20:56.634Z,99.99
2023-05-10T05:21:56.676Z,99.99
2023-05-10T05:22:56.650Z,99.99
2023-05-10T05:23:56.695Z,99.99
2023-05-10T05:24:56.579Z,99.99
2023-05-10T05:25:56.611Z,99.99
2023-05-10T05:26:56.580Z,99.99
2023-05-10T05:27:56.698Z,99.99
2023-05-10T05:28:56.545Z,99.99
2023-05-10T05:29:56.633Z,99.99
2023-05-10T05:30:56.528Z,99.99
2023-05-10T05:31:56.625Z,99.99
2023-05-10T05:32:56.587Z,99.99
2023-05-10T05:33:56.627Z,99.99
2023-05-10T05:34:56.510Z,99.99
2023-05-10T05:35:56.572Z,99.99
2023-05-10T05:36:56.465Z,99.99
2023-05-10T05:37:56.473Z,99.99
2023-05-10T05:38:56.474Z,99.99
2023-05-10T05:39:56.518Z,99.99
2023-05-10T05:40:56.519Z,99.99
2023-05-10T05:41:56.529Z,99.99
2023-05-10T05:42:56.408Z,99.99
2023-05-10T05:43:56.479Z,99.99
2023-05-10T05:44:56.385Z,99.99
2023-05-10T05:45:58.639Z,99.99
2023-05-10T05:46:56.356Z,99.99
2023-05-10T05:48:17.452Z,99.99
2023-05-10T05:48:56.366Z,99.99
2023-05-10T05:49:56.370Z,99.99
2023-05-10T05:50:56.308Z,99.99
2023-05-10T05:51:56.392Z,99.99
2023-05-10T05:52:56.312Z,99.99
2023-05-10T05:53:57.369Z,99.99
2023-05-10T05:54:56.282Z,99.99
2023-05-10T05:55:56.332Z,99.99
2023-05-10T05:56:56.315Z,99.99
2023-05-10T05:57:56.343Z,99.99
2023-05-10T05:58:56.304Z,99.99
2023-05-10T05:59:56.338Z,99.99
2023-05-10T06:00:56.228Z,99.99
2023-05-10T06:01:56.263Z,99.99
2023-05-10T06:02:56.287Z,99.99
2023-05-10T06:03:56.379Z,99.99
2023-05-10T06:04:56.179Z,99.99
2023-05-10T06:05:56.252Z,99.99
2023-05-10T06:06:56.165Z,99.99
2023-05-10T06:07:56.151Z,99.99
2023-05-10T06:08:56.301Z,99.99
2023-05-10T06:09:56.172Z,99.99
2023-05-10T06:10:56.142Z,99.99
2023-05-10T06:11:56.184Z,99.99
2023-05-10T06:12:56.092Z,99.99
2023-05-10T06:13:56.132Z,99.99
2023-05-10T06:14:56.065Z,99.99
2023-05-10T06:15:56.107Z,99.99
2023-05-10T06:16:56.116Z,99.99
2023-05-10T06:17:56.155Z,99.99
2023-05-10T06:18:56.022Z,99.99
2023-05-10T06:19:56.072Z,99.99
2023-05-10T06:20:56.012Z,99.99
2023-05-10T06:21:56.045Z,99.99
2023-05-10T06:22:55.982Z,99.99
2023-05-10T06:23:56.169Z,99.99
2023-05-10T06:24:55.969Z,99.99
2023-05-10T06:25:56.024Z,99.99
2023-05-10T06:26:55.951Z,99.99
2023-05-10T06:27:55.990Z,99.99
2023-05-10T06:28:55.926Z,99.99
2023-05-10T06:30:02.095Z,99.99
2023-05-10T06:30:55.904Z,99.99
2023-05-10T06:31:56.051Z,99.99
2023-05-10T06:32:55.935Z,99.99
2023-05-10T06:33:56.849Z,99.99
2023-05-10T06:34:55.860Z,99.99
2023-05-10T06:35:55.974Z,99.99
2023-05-10T06:36:55.875Z,99.99
2023-05-10T06:37:55.861Z,99.99
2023-05-10T06:38:55.838Z,99.99
2023-05-10T06:39:55.862Z,99.99
2023-05-10T06:40:55.838Z,99.99
2023-05-10T06:41:55.878Z,99.99
2023-05-10T06:42:55.767Z,99.99
2023-05-10T06:43:55.773Z,99.99
2023-05-10T06:44:55.757Z,99.99
2023-05-10T06:45:55.879Z,99.99
2023-05-10T06:46:55.730Z,99.99
2023-05-10T06:47:55.846Z,99.99
2023-05-10T06:48:55.716Z,99.99
2023-05-10T06:49:55.821Z,99.99
2023-05-10T06:50:55.720Z,99.99
2023-05-10T06:51:55.725Z,99.99
2023-05-10T06:52:55.674Z,99.99
2023-05-10T06:53:55.746Z,99.99
2023-05-10T06:54:55.653Z,99.99
2023-05-10T06:55:55.693Z,99.99
2023-05-10T06:56:55.623Z,99.99
2023-05-10T06:57:55.660Z,99.99
2023-05-10T06:58:55.613Z,99.99
2023-05-10T06:59:55.681Z,99.99
2023-05-10T07:00:55.609Z,99.99
2023-05-10T07:01:55.662Z,99.99
2023-05-10T07:02:55.603Z,99.99
2023-05-10T07:03:55.604Z,99.99
2023-05-10T07:04:55.655Z,99.99
2023-05-10T07:05:55.623Z,99.99
2023-05-10T07:06:55.559Z,98.48
2023-05-10T07:07:55.633Z,97.16
2023-05-10T07:08:55.495Z,99.99
2023-05-10T07:09:55.537Z,98.07
2023-05-10T07:10:55.484Z,98.07
2023-05-10T07:11:55.545Z,99.29
2023-05-10T07:12:55.542Z,99.99
2023-05-10T07:13:55.566Z,99.99
2023-05-10T07:14:55.453Z,99.99
2023-05-10T07:15:55.527Z,99.99
2023-05-10T07:16:55.480Z,99.99
2023-05-10T07:17:55.635Z,99.99
2023-05-10T07:18:55.407Z,99.99
2023-05-10T07:19:55.541Z,99.99
2023-05-10T07:20:55.426Z,99.60
2023-05-10T07:21:55.433Z,98.58
2023-05-10T07:22:55.353Z,96.38
2023-05-10T07:23:55.462Z,97.30
2023-05-10T07:24:55.334Z,99.54
2023-05-10T07:25:55.445Z,99.99
2023-05-10T07:26:55.313Z,99.95
2023-05-10T07:27:55.348Z,99.95
2023-05-10T07:28:55.320Z,99.99
2023-05-10T07:29:55.361Z,99.99
2023-05-10T07:30:55.291Z,99.99
2023-05-10T07:31:57.942Z,99.99
2023-05-10T07:32:55.265Z,99.99
2023-05-10T07:33:55.324Z,99.99
2023-05-10T07:34:55.253Z,99.99
2023-05-10T07:35:55.302Z,99.99
2023-05-10T07:36:55.200Z,99.50
2023-05-10T07:37:55.310Z,99.99
2023-05-10T07:38:55.194Z,99.99
2023-05-10T07:39:55.283Z,99.99
2023-05-10T07:40:55.167Z,99.99
2023-05-10T07:41:55.249Z,98.99
2023-05-10T07:42:55.151Z,99.99
2023-05-10T07:43:55.248Z,99.91
2023-05-10T07:44:55.172Z,99.99
2023-05-10T07:45:56.383Z,99.99
2023-05-10T07:46:55.099Z,99.99
2023-05-10T07:47:55.203Z,99.99
2023-05-10T07:48:55.079Z,99.99
2023-05-10T07:49:55.116Z,99.99
2023-05-10T07:50:55.063Z,99.99
2023-05-10T07:51:55.100Z,99.99
2023-05-10T07:52:55.030Z,99.99
2023-05-10T07:53:55.111Z,99.99
2023-05-10T07:54:55.029Z,99.99
2023-05-10T07:55:55.120Z,99.99
2023-05-10T07:56:54.996Z,99.99
2023-05-10T07:57:55.035Z,99.99
2023-05-10T07:58:54.977Z,99.99
2023-05-10T07:59:55.089Z,98.33
2023-05-10T08:00:54.957Z,98.74
2023-05-10T08:01:55.094Z,99.96
2023-05-10T08:02:55.044Z,99.99
2023-05-10T08:03:55.040Z,99.99
2023-05-10T08:04:54.946Z,98.23
2023-05-10T08:05:54.968Z,98.84
2023-05-10T08:06:54.890Z,97.41
2023-05-10T08:07:55.017Z,97.52
2023-05-10T08:08:54.870Z,99.86
2023-05-10T08:09:54.947Z,99.35
2023-05-10T08:10:54.834Z,94.05
2023-05-10T08:11:54.961Z,95.58
2023-05-10T08:12:54.817Z,94.97
2023-05-10T08:13:54.923Z,94.97
2023-05-10T08:14:54.805Z,95.07
2023-05-10T08:15:54.869Z,94.46
2023-05-10T08:16:54.798Z,92.93
2023-05-10T08:17:54.869Z,94.76
2023-05-10T08:18:54.814Z,96.30
2023-05-10T08:19:54.859Z,98.59
2023-05-10T08:20:54.737Z,97.88
2023-05-10T08:21:54.813Z,99.00
2023-05-10T08:22:54.715Z,97.16
2023-05-10T08:23:54.782Z,98.59
2023-05-10T08:24:54.698Z,95.33
2023-05-10T08:25:54.800Z,93.50
2023-05-10T08:26:54.693Z,90.75
2023-05-10T08:27:54.718Z,89.83
2023-05-10T08:28:54.659Z,89.42
2023-05-10T08:29:54.721Z,89.73
2023-05-10T08:30:54.661Z,92.89
2023-05-10T08:31:54.671Z,96.66
2023-05-10T08:32:54.632Z,92.18
2023-05-10T08:33:54.642Z,88.92
2023-05-10T08:34:54.579Z,90.44
2023-05-10T08:35:54.675Z,92.79
2023-05-10T08:36:54.585Z,90.55
2023-05-10T08:37:54.669Z,91.26
2023-05-10T08:38:54.576Z,95.90
2023-05-10T08:39:54.584Z,95.59
2023-05-10T08:40:54.557Z,94.17
2023-05-10T08:41:54.636Z,94.98
2023-05-10T08:42:54.503Z,88.81
2023-05-10T08:43:54.612Z,87.59
2023-05-10T08:44:54.478Z,91.26
2023-05-10T08:45:54.594Z,92.64
2023-05-10T08:46:54.622Z,97.12
2023-05-10T08:47:54.559Z,93.76
2023-05-10T08:48:54.484Z,90.91
2023-05-10T08:49:54.557Z,95.69
2023-05-10T08:50:54.434Z,92.09
2023-05-10T08:51:54.509Z,92.49
2023-05-10T08:52:54.407Z,90.56
2023-05-10T08:53:54.480Z,90.77
2023-05-10T08:54:54.389Z,88.73
2023-05-10T08:55:54.482Z,91.88
2023-05-10T08:56:54.359Z,91.88
2023-05-10T08:57:54.423Z,91.27
2023-05-10T08:58:54.330Z,87.81
2023-05-10T08:59:54.410Z,87.41
2023-05-10T09:00:54.415Z,87.98
2023-05-10T09:01:54.422Z,87.98
2023-05-10T09:02:54.337Z,89.81
2023-05-10T09:03:54.361Z,90.62
2023-05-10T09:04:54.402Z,93.57
2023-05-10T09:05:54.352Z,90.72
2023-05-10T09:06:54.266Z,85.53
2023-05-10T09:07:54.304Z,87.41
2023-05-10T09:08:54.243Z,88.28
2023-05-10T09:09:54.276Z,91.03
2023-05-10T09:10:54.222Z,89.81
2023-05-10T09:11:54.297Z,88.79
2023-05-10T09:12:54.235Z,91.84
2023-05-10T09:13:54.290Z,93.63
2023-05-10T09:14:54.164Z,90.68
2023-05-10T09:15:54.209Z,88.59
2023-05-10T09:16:54.206Z,87.87
2023-05-10T09:17:54.246Z,85.84
2023-05-10T09:18:54.161Z,87.26
2023-05-10T09:19:54.221Z,89.09
2023-05-10T09:20:54.105Z,87.26
2023-05-10T09:21:54.140Z,91.53
2023-05-10T09:22:54.113Z,86.65
2023-05-10T09:23:54.150Z,85.09
2023-05-10T09:24:54.066Z,88.04
2023-05-10T09:25:54.162Z,87.87
2023-05-10T09:26:54.055Z,85.13
2023-05-10T09:27:54.069Z,85.94
2023-05-10T09:28:54.058Z,89.50
2023-05-10T09:29:54.206Z,84.52
2023-05-10T09:30:54.028Z,87.47
2023-05-10T09:31:54.102Z,87.73
2023-05-10T09:32:53.992Z,87.43
2023-05-10T09:33:54.069Z,89.87
2023-05-10T09:34:53.981Z,86.77
2023-05-10T09:35:54.022Z,86.98
2023-05-10T09:36:53.946Z,85.55
2023-05-10T09:37:54.067Z,85.76
2023-05-10T09:38:53.935Z,82.81
2023-05-10T09:39:53.988Z,82.47
2023-05-10T09:40:53.890Z,85.92
2023-05-10T09:41:53.961Z,83.14
2023-05-10T09:42:53.883Z,83.95
2023-05-10T09:43:53.964Z,82.57
2023-05-10T09:44:53.854Z,82.87
2023-05-10T09:45:53.943Z,82.26
2023-05-10T09:46:53.845Z,84.44
2023-05-10T09:47:53.954Z,84.23
2023-05-10T09:48:53.808Z,83.62
2023-05-10T09:49:53.956Z,87.32
2023-05-10T09:50:53.796Z,82.34
2023-05-10T09:51:53.873Z,82.65
2023-05-10T09:52:53.820Z,85.74
2023-05-10T09:53:53.834Z,86.55
2023-05-10T09:54:53.745Z,85.03
2023-05-10T09:55:53.846Z,86.25
2023-05-10T09:56:53.746Z,84.62
2023-05-10T09:57:53.763Z,85.94
2023-05-10T09:58:53.699Z,84.92
2023-05-10T09:59:53.762Z,85.64
2023-05-10T10:00:53.699Z,84.92
2023-05-10T10:01:53.877Z,85.06
2023-05-10T10:02:53.716Z,85.06
2023-05-10T10:03:53.700Z,87.61
2023-05-10T10:04:53.678Z,85.47
2023-05-10T10:05:53.711Z,86.43
2023-05-10T10:06:53.611Z,85.31
2023-05-10T10:07:53.662Z,85.11
2023-05-10T10:08:55.616Z,85.72
2023-05-10T10:09:53.622Z,89.07
2023-05-10T10:10:56.181Z,86.02
2023-05-10T10:11:53.652Z,86.43
2023-05-10T10:12:53.559Z,88.87
2023-05-10T10:13:53.598Z,90.50
2023-05-10T10:14:53.547Z,87.24
2023-05-10T10:15:53.611Z,87.65
2023-05-10T10:17:06.727Z,88.57
2023-05-10T10:17:53.629Z,89.59
2023-05-10T10:18:53.687Z,87.24
2023-05-10T10:19:53.496Z,87.69
2023-05-10T10:20:53.491Z,86.47
2023-05-10T10:21:53.464Z,88.04
2023-05-10T10:22:53.507Z,90.28
2023-05-10T10:23:53.480Z,89.57
2023-05-10T10:24:53.578Z,90.08
2023-05-10T10:25:53.429Z,89.67
2023-05-10T10:26:53.432Z,89.87
2023-05-10T10:27:53.442Z,92.22
2023-05-10T10:28:53.460Z,90.38
2023-05-10T10:29:53.411Z,88.14
2023-05-10T10:30:53.457Z,90.99
2023-05-10T10:31:53.502Z,90.18
2023-05-10T10:32:53.414Z,89.57
2023-05-10T10:33:53.349Z,91.91
2023-05-10T10:34:53.385Z,92.42
2023-05-10T10:35:53.324Z,89.16
2023-05-10T10:36:53.406Z,92.42
2023-05-10T10:37:53.332Z,91.20
2023-05-10T10:38:53.316Z,91.61
2023-05-10T10:39:53.273Z,89.47
2023-05-10T10:40:53.312Z,89.36
2023-05-10T10:41:53.252Z,90.18
2023-05-10T10:42:53.406Z,91.09
2023-05-10T10:43:53.225Z,89.77
2023-05-10T10:44:53.237Z,89.36
2023-05-10T10:45:53.215Z,89.36
2023-05-10T10:46:53.269Z,91.30
2023-05-10T10:47:53.202Z,91.36
2023-05-10T10:48:53.283Z,90.44
2023-05-10T10:49:53.166Z,88.20
2023-05-10T10:50:53.156Z,88.71
2023-05-10T10:51:53.192Z,89.12
2023-05-10T10:52:53.323Z,89.53
2023-05-10T10:53:53.133Z,92.27
2023-05-10T10:54:53.270Z,93.55
2023-05-10T10:55:53.129Z,89.59
2023-05-10T10:56:53.089Z,90.30
2023-05-10T10:57:53.110Z,88.77
2023-05-10T10:58:53.168Z,86.53
2023-05-10T10:59:53.060Z,86.22
2023-05-10T11:00:53.241Z,87.96
2023-05-10T11:01:53.078Z,88.46
2023-05-10T11:02:53.113Z,88.02
2023-05-10T11:03:53.045Z,86.80
2023-05-10T11:04:53.118Z,87.61
2023-05-10T11:05:53.031Z,85.47
2023-05-10T11:06:53.170Z,86.25
2023-05-10T11:07:52.981Z,85.03
2023-05-10T11:08:53.055Z,86.55
2023-05-10T11:09:52.950Z,87.43
2023-05-10T11:10:55.127Z,86.31
2023-05-10T11:11:52.947Z,85.19
2023-05-10T11:12:53.076Z,84.13
2023-05-10T11:13:52.894Z,84.64
2023-05-10T11:14:52.980Z,84.74
2023-05-10T11:15:52.881Z,85.15
2023-05-10T11:16:55.034Z,82.31
2023-05-10T11:17:52.955Z,83.93
2023-05-10T11:18:53.999Z,86.88
2023-05-10T11:19:52.843Z,85.35
2023-05-10T11:20:52.928Z,84.23
2023-05-10T11:21:52.830Z,81.49
2023-05-10T11:22:52.945Z,81.29
2023-05-10T11:23:52.859Z,80.98
2023-05-10T11:24:52.954Z,83.69
2023-05-10T11:25:52.793Z,83.79
2023-05-10T11:26:52.802Z,81.35
2023-05-10T11:27:52.868Z,83.28
2023-05-10T11:28:52.758Z,81.72
2023-05-10T11:29:52.767Z,82.64
2023-05-10T11:30:52.775Z,84.97
2023-05-10T11:31:52.711Z,87.92
2023-05-10T11:32:52.844Z,85.27
2023-05-10T11:33:52.700Z,87.51
2023-05-10T11:34:52.747Z,83.85
2023-05-10T11:35:52.702Z,82.73
2023-05-10T11:36:52.880Z,84.16
2023-05-10T11:37:52.650Z,83.14
2023-05-10T11:38:52.739Z,82.23
2023-05-10T11:39:52.630Z,84.50
2023-05-10T11:40:52.773Z,80.54
2023-05-10T11:41:52.636Z,83.01
2023-05-10T11:42:52.700Z,80.27
2023-05-10T11:43:52.596Z,80.31
2023-05-10T11:44:52.609Z,78.11
2023-05-10T11:45:52.610Z,78.15
2023-05-10T11:46:52.684Z,80.02
2023-05-10T11:47:52.635Z,80.05
2023-05-10T11:48:52.647Z,81.99
2023-05-10T11:49:52.534Z,81.58
2023-05-10T11:50:52.547Z,82.33
2023-05-10T11:51:52.677Z,81.62
2023-05-10T11:52:52.616Z,82.43
2023-05-10T11:53:52.496Z,82.94
2023-05-10T11:54:52.568Z,84.06
2023-05-10T11:55:52.470Z,84.06
2023-05-10T11:57:04.873Z,83.86
2023-05-10T11:57:52.444Z,83.72
2023-05-10T11:58:52.683Z,83.01
2023-05-10T11:59:52.558Z,81.58
2023-05-10T12:00:53.420Z,83.92
2023-05-10T12:01:52.423Z,82.80
2023-05-10T12:02:52.678Z,83.62
2023-05-10T12:03:52.605Z,85.21
2023-05-10T12:04:52.547Z,80.36
2023-05-10T12:05:52.356Z,80.26
2023-05-10T12:06:52.578Z,82.56
2023-05-10T12:07:52.362Z,80.52
2023-05-10T12:08:52.526Z,79.91
2023-05-10T12:09:52.394Z,80.11
2023-05-10T12:10:52.484Z,78.89
2023-05-10T12:11:52.336Z,79.61
2023-05-10T12:12:52.384Z,77.87
2023-05-10T12:13:52.747Z,78.49
2023-05-10T12:14:52.301Z,77.78
2023-05-10T12:15:52.269Z,77.57
2023-05-10T12:16:52.515Z,76.15
2023-05-10T12:17:52.272Z,76.25
2023-05-10T12:18:52.438Z,77.26
2023-05-10T12:19:52.268Z,76.86
2023-05-10T12:20:52.260Z,75.74
2023-05-10T12:21:52.210Z,74.72
2023-05-10T12:22:54.348Z,77.44
2023-05-10T12:23:52.173Z,78.55
2023-05-10T12:24:52.380Z,74.89
2023-05-10T12:25:52.183Z,76.52
2023-05-10T12:26:52.178Z,76.92
2023-05-10T12:27:52.133Z,76.92
2023-05-10T12:28:52.199Z,77.03
2023-05-10T12:29:52.253Z,73.67
2023-05-10T12:30:52.266Z,75.70
2023-05-10T12:31:52.148Z,74.69
2023-05-10T12:32:52.442Z,73.57
2023-05-10T12:33:52.083Z,73.16
2023-05-10T12:34:52.204Z,74.69
2023-05-10T12:35:52.089Z,76.82
2023-05-10T12:36:52.254Z,74.18
2023-05-10T12:37:52.013Z,72.34
2023-05-10T12:38:52.275Z,72.34
2023-05-10T12:39:52.196Z,72.96
2023-05-10T12:40:52.296Z,73.87
2023-05-10T13:40:37.249Z,71.70
2023-05-10T13:41:36.783Z,75.26
2023-05-10T13:42:36.888Z,74.85
2023-05-10T13:43:36.870Z,74.76
2023-05-10T13:44:36.930Z,74.96
2023-05-10T13:45:36.734Z,72.92
2023-05-10T13:46:36.996Z,74.45
2023-05-10T13:47:36.770Z,72.62
2023-05-10T13:48:38.704Z,73.33
2023-05-10T13:49:36.705Z,74.85
2023-05-10T13:50:36.825Z,73.54
2023-05-10T13:51:36.690Z,75.37